Terminal Aerodrome Forecast
Issued by NWS

Home | Current Version | Previous Version | Text Only | Print | Product List | Glossary On
Versions: 1 2 3 4 5 6 7 8 9 10 11 12 13 14 15 16 17 18 19 20 21 22 23 24 25
000
FTUS46 KEKA 030520
TAFCEC
TAF
KCEC 030520Z 0306/0406 35003KT P6SM OVC005
     FM030900 34003KT 5SM BR OVC003
     FM031500 32010KT P6SM SCT010
     FM032200 33014KT P6SM SCT015
     FM040300 32008KT P6SM OVC012=

USA.gov is the U.S. government's official web portal to all federal, state and local government web resources and services.